Chronik & Geschichte

Boeing Stearman am Flugplatz Konstanz

Mit seiner 107-jährigen Geschichte ist Konstanz der älteste Verkehrslandeplatz Deutschlands. Lesen Sie unsere Festschrift zum 100-jährigen Platzjubiläum oder entdecken Sie die ausführliche Flugplatzchronik auf der Website der Initiative PRO Flugplatz Konstanz.

Live am Platz

Die Bilder unserer Webcams werden alle 5 Minuten aktualisiert.

Sonnenaufgang:

05:02 UTC / 07:02 Lokal

Sonnenuntergang:

17:33 UTC / 19:33 Lokal

METAR (17.09.2019 08:20 UTC):

EDNY 170820Z 24003KT 200V280 CAVOK 19/13 Q1019
VFR

TAF (17.09.2019 05:00 UTC):

TAF EDNY 170500Z 1706/1806 VRB02KT CAVOK BECMG 1709/1712 27005KT BECMG 1715/1717 04005KT BECMG 1804/1806 03010KT

Alle Angaben unverbindlich und ohne Gewähr. Zeiten genähert.

Für den Verkehrslandeplatz Konstanz werden keine offiziellen Wetterinformationen ausgegeben. Daher werden zur Orientierung Daten des nahegelegenen Flughafens Friedrichshafen dargestellt.

Flugwetterdaten zur Verfügung gestellt von wippich.aero.